createdAt,value
2023-05-11T00:00:11.078Z,1024.61
2023-05-11T00:01:11.042Z,1024.65
2023-05-11T00:02:11.097Z,1024.63
2023-05-11T00:03:11.169Z,1024.66
2023-05-11T00:04:11.124Z,1024.69
2023-05-11T00:05:11.056Z,1024.66
2023-05-11T00:06:11.076Z,1024.70
2023-05-11T00:07:11.077Z,1024.71
2023-05-11T00:08:11.058Z,1024.71
2023-05-11T00:09:11.061Z,1024.68
2023-05-11T00:10:11.074Z,1024.71
2023-05-11T00:11:11.062Z,1024.72
2023-05-11T00:12:11.070Z,1024.73
2023-05-11T00:13:11.074Z,1024.74
2023-05-11T00:14:11.069Z,1024.76
2023-05-11T00:15:11.076Z,1024.78
2023-05-11T00:16:11.197Z,1024.76
2023-05-11T00:17:11.087Z,1024.79
2023-05-11T00:18:11.082Z,1024.78
2023-05-11T00:19:11.080Z,1024.84
2023-05-11T00:20:11.100Z,1024.82
2023-05-11T00:21:11.088Z,1024.83
2023-05-11T00:22:11.096Z,1024.81
2023-05-11T00:23:11.107Z,1024.80
2023-05-11T00:24:11.105Z,1024.83
2023-05-11T00:25:11.104Z,1024.80
2023-05-11T00:26:11.130Z,1024.85
2023-05-11T00:27:11.105Z,1024.84
2023-05-11T00:28:11.126Z,1024.83
2023-05-11T00:29:11.110Z,1024.87
2023-05-11T00:30:11.121Z,1024.88
2023-05-11T00:31:11.172Z,1024.88
2023-05-11T00:32:11.136Z,1024.93
2023-05-11T00:33:11.114Z,1024.90
2023-05-11T00:34:11.123Z,1024.93
2023-05-11T00:35:11.140Z,1024.92
2023-05-11T00:36:11.116Z,1024.94
2023-05-11T00:37:11.119Z,1024.95
2023-05-11T00:38:11.137Z,1024.98
2023-05-11T00:39:11.131Z,1025.01
2023-05-11T00:40:11.124Z,1025.01
2023-05-11T00:41:11.140Z,1025.04
2023-05-11T00:42:11.134Z,1024.99
2023-05-11T00:43:11.141Z,1025.00
2023-05-11T00:44:11.145Z,1024.98
2023-05-11T00:45:11.141Z,1025.03
2023-05-11T00:46:11.139Z,1025.01
2023-05-11T00:47:11.208Z,1025.07
2023-05-11T00:48:11.174Z,1025.02
2023-05-11T00:49:11.148Z,1025.04
2023-05-11T00:50:11.326Z,1025.04
2023-05-11T00:51:11.147Z,1025.04
2023-05-11T00:52:11.165Z,1025.05
2023-05-11T00:53:11.151Z,1025.08
2023-05-11T00:54:11.156Z,1025.04
2023-05-11T00:55:11.161Z,1025.08
2023-05-11T00:56:11.166Z,1025.06
2023-05-11T00:57:11.170Z,1025.06
2023-05-11T00:58:11.162Z,1025.07
2023-05-11T00:59:11.166Z,1025.06
2023-05-11T01:00:11.178Z,1025.07
2023-05-11T01:01:11.224Z,1025.05
2023-05-11T01:02:11.247Z,1025.08
2023-05-11T01:03:11.259Z,1025.05
2023-05-11T01:04:11.215Z,1025.03
2023-05-11T01:05:11.217Z,1025.03
2023-05-11T01:06:11.194Z,1025.03
2023-05-11T01:07:11.204Z,1025.02
2023-05-11T01:08:11.197Z,1025.01
2023-05-11T01:09:11.191Z,1025.03
2023-05-11T01:10:11.197Z,1025.03
2023-05-11T01:11:11.333Z,1025.05
2023-05-11T01:12:11.204Z,1025.09
2023-05-11T01:13:11.201Z,1025.08
2023-05-11T01:14:11.222Z,1025.08
2023-05-11T01:15:11.203Z,1025.09
2023-05-11T01:16:11.235Z,1025.09
2023-05-11T01:17:11.215Z,1025.07
2023-05-11T01:18:11.315Z,1025.11
2023-05-11T01:19:11.289Z,1025.10
2023-05-11T01:20:11.242Z,1025.05
2023-05-11T01:21:11.236Z,1025.05
2023-05-11T01:22:11.236Z,1025.09
2023-05-11T01:23:11.231Z,1025.07
2023-05-11T01:24:11.232Z,1025.07
2023-05-11T01:25:11.231Z,1025.08
2023-05-11T01:26:11.240Z,1025.06
2023-05-11T01:27:11.262Z,1025.10
2023-05-11T01:28:11.235Z,1025.11
2023-05-11T01:29:11.267Z,1025.11
2023-05-11T01:30:11.247Z,1025.09
2023-05-11T01:31:11.261Z,1025.10
2023-05-11T01:32:11.320Z,1025.13
2023-05-11T01:33:11.281Z,1025.13
2023-05-11T01:34:11.267Z,1025.13
2023-05-11T01:35:11.283Z,1025.13
2023-05-11T01:36:11.296Z,1025.16
2023-05-11T01:37:11.278Z,1025.17
2023-05-11T01:38:11.269Z,1025.16
2023-05-11T01:39:11.275Z,1025.16
2023-05-11T01:40:11.272Z,1025.13
2023-05-11T01:41:11.270Z,1025.14
2023-05-11T01:42:11.275Z,1025.16
2023-05-11T01:43:11.281Z,1025.18
2023-05-11T01:44:11.272Z,1025.17
2023-05-11T01:45:11.276Z,1025.17
2023-05-11T01:46:11.337Z,1025.15
2023-05-11T01:47:11.277Z,1025.20
2023-05-11T01:48:11.279Z,1025.20
2023-05-11T01:49:11.286Z,1025.20
2023-05-11T01:50:11.287Z,1025.18
2023-05-11T01:51:11.292Z,1025.19
2023-05-11T01:52:11.332Z,1025.21
2023-05-11T01:53:11.296Z,1025.20
2023-05-11T01:54:11.287Z,1025.24
2023-05-11T01:55:11.315Z,1025.21
2023-05-11T01:56:11.298Z,1025.24
2023-05-11T01:57:11.298Z,1025.23
2023-05-11T01:58:11.300Z,1025.26
2023-05-11T01:59:11.319Z,1025.23
2023-05-11T02:00:11.314Z,1025.24
2023-05-11T02:01:11.345Z,1025.24
2023-05-11T02:02:11.319Z,1025.27
2023-05-11T02:03:11.445Z,1025.25
2023-05-11T02:04:11.312Z,1025.25
2023-05-11T02:05:11.566Z,1025.27
2023-05-11T02:06:11.318Z,1025.32
2023-05-11T02:07:11.316Z,1025.34
2023-05-11T02:08:11.347Z,1025.25
2023-05-11T02:09:11.327Z,1025.24
2023-05-11T02:10:11.322Z,1025.24
2023-05-11T02:11:11.331Z,1025.29
2023-05-11T02:12:11.337Z,1025.27
2023-05-11T02:13:11.344Z,1025.31
2023-05-11T02:14:11.338Z,1025.31
2023-05-11T02:15:11.353Z,1025.31
2023-05-11T02:16:11.405Z,1025.31
2023-05-11T02:17:11.343Z,1025.31
2023-05-11T02:18:11.355Z,1025.30
2023-05-11T02:19:11.403Z,1025.31
2023-05-11T02:20:11.344Z,1025.28
2023-05-11T02:21:11.347Z,1025.29
2023-05-11T02:22:11.353Z,1025.27
2023-05-11T02:23:11.358Z,1025.28
2023-05-11T02:24:11.390Z,1025.27
2023-05-11T02:25:11.360Z,1025.28
2023-05-11T02:26:11.374Z,1025.33
2023-05-11T02:27:11.369Z,1025.30
2023-05-11T02:28:11.363Z,1025.29
2023-05-11T02:29:11.365Z,1025.27
2023-05-11T02:30:11.698Z,1025.30
2023-05-11T02:31:11.388Z,1025.30
2023-05-11T02:32:11.384Z,1025.33
2023-05-11T02:33:11.377Z,1025.31
2023-05-11T02:34:11.382Z,1025.32
2023-05-11T02:35:11.402Z,1025.32
2023-05-11T02:36:11.387Z,1025.32
2023-05-11T02:37:11.390Z,1025.30
2023-05-11T02:38:11.392Z,1025.34
2023-05-11T02:39:11.392Z,1025.30
2023-05-11T02:40:11.416Z,1025.31
2023-05-11T02:41:11.400Z,1025.30
2023-05-11T02:42:11.396Z,1025.33
2023-05-11T02:43:11.407Z,1025.29
2023-05-11T02:44:11.397Z,1025.37
2023-05-11T02:45:11.564Z,1025.38
2023-05-11T02:46:11.415Z,1025.35
2023-05-11T02:47:11.407Z,1025.37
2023-05-11T02:48:11.443Z,1025.38
2023-05-11T02:49:11.419Z,1025.39
2023-05-11T02:50:11.412Z,1025.43
2023-05-11T02:51:11.413Z,1025.45
2023-05-11T02:52:11.425Z,1025.41
2023-05-11T02:53:11.418Z,1025.47
2023-05-11T02:54:11.418Z,1025.43
2023-05-11T02:55:11.422Z,1025.44
2023-05-11T02:56:11.451Z,1025.44
2023-05-11T02:57:11.423Z,1025.45
2023-05-11T02:58:11.542Z,1025.42
2023-05-11T02:59:11.441Z,1025.40
2023-05-11T03:00:11.436Z,1025.43
2023-05-11T03:01:11.493Z,1025.41
2023-05-11T03:02:11.528Z,1025.43
2023-05-11T03:03:11.580Z,1025.46
2023-05-11T03:04:11.446Z,1025.45
2023-05-11T03:05:11.598Z,1025.48
2023-05-11T03:06:11.447Z,1025.47
2023-05-11T03:07:11.449Z,1025.49
2023-05-11T03:08:11.455Z,1025.47
2023-05-11T03:09:11.458Z,1025.47
2023-05-11T03:10:11.461Z,1025.49
2023-05-11T03:11:11.457Z,1025.52
2023-05-11T03:12:11.497Z,1025.48
2023-05-11T03:13:11.462Z,1025.46
2023-05-11T03:14:11.475Z,1025.48
2023-05-11T03:15:11.470Z,1025.51
2023-05-11T03:16:11.499Z,1025.50
2023-05-11T03:17:11.477Z,1025.48
2023-05-11T03:18:11.475Z,1025.52
2023-05-11T03:19:11.470Z,1025.48
2023-05-11T03:20:11.482Z,1025.49
2023-05-11T03:21:11.481Z,1025.50
2023-05-11T03:22:11.487Z,1025.49
2023-05-11T03:23:11.484Z,1025.47
2023-05-11T03:24:11.494Z,1025.52
2023-05-11T03:25:11.492Z,1025.54
2023-05-11T03:26:11.493Z,1025.53
2023-05-11T03:27:11.497Z,1025.56
2023-05-11T03:28:11.514Z,1025.57
2023-05-11T03:29:11.503Z,1025.58
2023-05-11T03:30:11.507Z,1025.57
2023-05-11T03:31:11.507Z,1025.53
2023-05-11T03:32:11.549Z,1025.57
2023-05-11T03:33:11.577Z,1025.58
2023-05-11T03:34:11.509Z,1025.60
2023-05-11T03:35:11.512Z,1025.56
2023-05-11T03:36:11.517Z,1025.56
2023-05-11T03:37:11.512Z,1025.55
2023-05-11T03:38:11.517Z,1025.58
2023-05-11T03:39:11.527Z,1025.54
2023-05-11T03:40:11.533Z,1025.56
2023-05-11T03:41:11.529Z,1025.56
2023-05-11T03:42:11.525Z,1025.56
2023-05-11T03:43:11.539Z,1025.54
2023-05-11T03:44:11.561Z,1025.57
2023-05-11T03:45:11.527Z,1025.56
2023-05-11T03:46:11.598Z,1025.53
2023-05-11T03:47:11.541Z,1025.59
2023-05-11T03:48:11.541Z,1025.56
2023-05-11T03:49:13.745Z,1025.55
2023-05-11T03:50:11.547Z,1025.58
2023-05-11T03:51:11.548Z,1025.60
2023-05-11T03:52:11.552Z,1025.58
2023-05-11T03:53:11.598Z,1025.61
2023-05-11T03:54:11.564Z,1025.59
2023-05-11T03:55:11.556Z,1025.58
2023-05-11T03:56:11.553Z,1025.58
2023-05-11T03:57:11.550Z,1025.55
2023-05-11T03:58:11.554Z,1025.54
2023-05-11T03:59:11.561Z,1025.59
2023-05-11T04:00:11.641Z,1025.58
2023-05-11T04:01:11.564Z,1025.59
2023-05-11T04:02:11.599Z,1025.60
2023-05-11T04:03:11.706Z,1025.62
2023-05-11T04:04:11.637Z,1025.61
2023-05-11T04:05:11.616Z,1025.63
2023-05-11T04:06:11.583Z,1025.64
2023-05-11T04:07:11.583Z,1025.68
2023-05-11T04:08:11.587Z,1025.63
2023-05-11T04:09:11.576Z,1025.66
2023-05-11T04:10:11.583Z,1025.66
2023-05-11T04:11:11.583Z,1025.63
2023-05-11T04:12:11.588Z,1025.62
2023-05-11T04:13:11.593Z,1025.64
2023-05-11T04:14:11.610Z,1025.65
2023-05-11T04:15:11.594Z,1025.67
2023-05-11T04:16:11.698Z,1025.64
2023-05-11T04:17:11.595Z,1025.65
2023-05-11T04:18:11.613Z,1025.63
2023-05-11T04:19:11.595Z,1025.62
2023-05-11T04:20:11.611Z,1025.65
2023-05-11T04:21:11.607Z,1025.64
2023-05-11T04:22:11.603Z,1025.66
2023-05-11T04:23:11.629Z,1025.66
2023-05-11T04:24:11.621Z,1025.64
2023-05-11T04:25:11.774Z,1025.67
2023-05-11T04:26:11.612Z,1025.64
2023-05-11T04:27:11.635Z,1025.67
2023-05-11T04:28:11.670Z,1025.66
2023-05-11T04:29:11.651Z,1025.64
2023-05-11T04:30:11.618Z,1025.62
2023-05-11T04:31:11.681Z,1025.64
2023-05-11T04:32:11.669Z,1025.66
2023-05-11T04:33:11.636Z,1025.63
2023-05-11T04:34:11.636Z,1025.65
2023-05-11T04:35:11.635Z,1025.67
2023-05-11T04:36:11.646Z,1025.63
2023-05-11T04:37:11.634Z,1025.65
2023-05-11T04:38:11.665Z,1025.66
2023-05-11T04:39:11.649Z,1025.63
2023-05-11T04:40:11.654Z,1025.67
2023-05-11T04:41:11.651Z,1025.66
2023-05-11T04:42:11.660Z,1025.67
2023-05-11T04:43:11.650Z,1025.70
2023-05-11T04:44:11.682Z,1025.72
2023-05-11T04:45:11.671Z,1025.70
2023-05-11T04:46:11.715Z,1025.70
2023-05-11T04:47:11.659Z,1025.67
2023-05-11T04:48:11.744Z,1025.68
2023-05-11T04:49:11.668Z,1025.69
2023-05-11T04:50:11.665Z,1025.67
2023-05-11T04:51:11.677Z,1025.73
2023-05-11T04:52:11.680Z,1025.72
2023-05-11T04:53:11.686Z,1025.72
2023-05-11T04:54:11.701Z,1025.74
2023-05-11T04:55:11.674Z,1025.76
2023-05-11T04:56:11.681Z,1025.74
2023-05-11T04:57:11.689Z,1025.71
2023-05-11T04:58:11.694Z,1025.71
2023-05-11T04:59:11.710Z,1025.76
2023-05-11T05:00:11.706Z,1025.73
2023-05-11T05:01:11.759Z,1025.77
2023-05-11T05:02:11.694Z,1025.78
2023-05-11T05:03:11.697Z,1025.81
2023-05-11T05:04:12.001Z,1025.80
2023-05-11T05:05:11.705Z,1025.79
2023-05-11T05:06:11.699Z,1025.82
2023-05-11T05:07:11.709Z,1025.81
2023-05-11T05:08:11.703Z,1025.78
2023-05-11T05:09:11.707Z,1025.77
2023-05-11T05:10:12.025Z,1025.78
2023-05-11T05:11:11.719Z,1025.81
2023-05-11T05:12:11.714Z,1025.78
2023-05-11T05:13:11.734Z,1025.80
2023-05-11T05:14:11.718Z,1025.73
2023-05-11T05:15:11.726Z,1025.73
2023-05-11T05:16:11.757Z,1025.71
2023-05-11T05:17:11.822Z,1025.72
2023-05-11T05:18:11.768Z,1025.75
2023-05-11T05:19:11.735Z,1025.78
2023-05-11T05:20:11.767Z,1025.74
2023-05-11T05:21:11.735Z,1025.75
2023-05-11T05:22:11.733Z,1025.73
2023-05-11T05:23:11.752Z,1025.77
2023-05-11T05:24:11.744Z,1025.77
2023-05-11T05:25:11.809Z,1025.76
2023-05-11T05:26:11.787Z,1025.76
2023-05-11T05:27:11.766Z,1025.76
2023-05-11T05:28:11.758Z,1025.79
2023-05-11T05:29:11.798Z,1025.81
2023-05-11T05:30:11.761Z,1025.80
2023-05-11T05:31:11.835Z,1025.79
2023-05-11T05:32:11.772Z,1025.77
2023-05-11T05:33:11.855Z,1025.80
2023-05-11T05:34:13.038Z,1025.75
2023-05-11T05:35:11.777Z,1025.76
2023-05-11T05:36:11.798Z,1025.79
2023-05-11T05:37:11.771Z,1025.77
2023-05-11T05:38:11.776Z,1025.77
2023-05-11T05:39:11.805Z,1025.80
2023-05-11T05:40:11.817Z,1025.77
2023-05-11T05:41:11.786Z,1025.79
2023-05-11T05:42:11.780Z,1025.81
2023-05-11T05:43:11.793Z,1025.80
2023-05-11T05:44:11.812Z,1025.80
2023-05-11T05:45:13.966Z,1025.80
2023-05-11T05:46:11.815Z,1025.77
2023-05-11T05:47:11.795Z,1025.81
2023-05-11T05:48:11.808Z,1025.78
2023-05-11T05:49:11.806Z,1025.81
2023-05-11T05:50:11.950Z,1025.81
2023-05-11T05:51:11.809Z,1025.85
2023-05-11T05:52:11.847Z,1025.82
2023-05-11T05:53:11.807Z,1025.82
2023-05-11T05:54:11.808Z,1025.83
2023-05-11T05:55:11.814Z,1025.77
2023-05-11T05:56:11.810Z,1025.81
2023-05-11T05:57:13.171Z,1025.78
2023-05-11T05:58:11.813Z,1025.78
2023-05-11T05:59:11.834Z,1025.81
2023-05-11T06:00:11.820Z,1025.79
2023-05-11T06:01:11.823Z,1025.81
2023-05-11T06:02:11.865Z,1025.79
2023-05-11T06:03:11.858Z,1025.82
2023-05-11T06:04:11.928Z,1025.80
2023-05-11T06:05:11.832Z,1025.78
2023-05-11T06:06:11.840Z,1025.78
2023-05-11T06:07:11.831Z,1025.82
2023-05-11T06:08:11.858Z,1025.82
2023-05-11T06:09:11.840Z,1025.78
2023-05-11T06:10:11.855Z,1025.79
2023-05-11T06:11:11.848Z,1025.80
2023-05-11T06:12:11.862Z,1025.80
2023-05-11T06:13:11.851Z,1025.84
2023-05-11T06:14:11.862Z,1025.80
2023-05-11T06:15:11.899Z,1025.85
2023-05-11T06:16:11.894Z,1025.81
2023-05-11T06:17:11.858Z,1025.84
2023-05-11T06:18:11.884Z,1025.85
2023-05-11T06:19:12.021Z,1025.84
2023-05-11T06:20:12.013Z,1025.84
2023-05-11T06:21:11.868Z,1025.84
2023-05-11T06:22:11.877Z,1025.83
2023-05-11T06:23:11.878Z,1025.84
2023-05-11T06:24:11.907Z,1025.86
2023-05-11T06:25:11.869Z,1025.86
2023-05-11T06:26:11.876Z,1025.83
2023-05-11T06:27:11.882Z,1025.84
2023-05-11T06:28:11.881Z,1025.84
2023-05-11T06:29:11.885Z,1025.85
2023-05-11T06:30:11.888Z,1025.85
2023-05-11T06:31:11.941Z,1025.84
2023-05-11T06:32:11.896Z,1025.89
2023-05-11T06:33:11.900Z,1025.85
2023-05-11T06:34:11.901Z,1025.87
2023-05-11T06:35:11.898Z,1025.90
2023-05-11T06:36:11.903Z,1025.90
2023-05-11T06:37:11.895Z,1025.90
2023-05-11T06:38:11.906Z,1025.92
2023-05-11T06:39:11.908Z,1025.89
2023-05-11T06:40:12.121Z,1025.89
2023-05-11T06:41:11.920Z,1025.91
2023-05-11T06:42:11.911Z,1025.89
2023-05-11T06:43:11.930Z,1025.93
2023-05-11T06:44:11.914Z,1025.90
2023-05-11T06:45:11.979Z,1025.91
2023-05-11T06:46:11.986Z,1025.93
2023-05-11T06:47:11.924Z,1025.95
2023-05-11T06:48:11.994Z,1025.95
2023-05-11T06:49:11.938Z,1025.93
2023-05-11T06:50:11.924Z,1025.96
2023-05-11T06:51:11.933Z,1025.95
2023-05-11T06:52:11.939Z,1025.96
2023-05-11T06:53:11.937Z,1026.00
2023-05-11T06:54:11.948Z,1026.00
2023-05-11T06:55:12.094Z,1025.98
2023-05-11T06:56:11.969Z,1025.95
2023-05-11T06:57:14.313Z,1026.01
2023-05-11T06:58:11.948Z,1026.01
2023-05-11T06:59:11.963Z,1026.00
2023-05-11T07:00:11.951Z,1025.96
2023-05-11T07:01:12.019Z,1025.97
2023-05-11T07:02:11.956Z,1025.99
2023-05-11T07:03:11.988Z,1025.97
2023-05-11T07:04:12.041Z,1025.97
2023-05-11T07:05:11.964Z,1025.93
2023-05-11T07:06:11.965Z,1025.97
2023-05-11T07:07:11.967Z,1026.00
2023-05-11T07:08:11.971Z,1025.97
2023-05-11T07:09:11.970Z,1025.98
2023-05-11T07:10:11.967Z,1025.97
2023-05-11T07:11:11.977Z,1025.99
2023-05-11T07:12:12.108Z,1026.00
2023-05-11T07:13:11.978Z,1026.00
2023-05-11T07:14:11.978Z,1026.00
2023-05-11T07:15:11.982Z,1026.03
2023-05-11T07:16:11.982Z,1026.01
2023-05-11T07:17:12.044Z,1026.05
2023-05-11T07:18:12.154Z,1026.01
2023-05-11T07:19:12.054Z,1026.00
2023-05-11T07:20:12.049Z,1026.04
2023-05-11T07:21:12.001Z,1026.04
2023-05-11T07:22:14.732Z,1026.03
2023-05-11T07:23:12.000Z,1026.05
2023-05-11T07:24:12.004Z,1026.02
2023-05-11T07:25:12.000Z,1026.03
2023-05-11T07:26:12.013Z,1026.02
2023-05-11T07:27:12.017Z,1026.01
2023-05-11T07:28:12.038Z,1026.05
2023-05-11T07:29:12.013Z,1026.02
2023-05-11T07:30:12.023Z,1026.04
2023-05-11T07:31:12.030Z,1026.10
2023-05-11T07:32:12.021Z,1026.06
2023-05-11T07:33:12.060Z,1026.12
2023-05-11T07:34:12.021Z,1026.05
2023-05-11T07:35:12.027Z,1026.06
2023-05-11T07:36:12.024Z,1026.07
2023-05-11T07:37:12.035Z,1026.06
2023-05-11T07:38:12.027Z,1026.05
2023-05-11T07:39:12.036Z,1026.01
2023-05-11T07:40:12.043Z,1026.00
2023-05-11T07:41:12.823Z,1026.06
2023-05-11T07:42:12.047Z,1026.08
2023-05-11T07:43:12.061Z,1026.10
2023-05-11T07:44:12.070Z,1026.07
2023-05-11T07:45:12.049Z,1026.08
2023-05-11T07:46:12.083Z,1026.08
2023-05-11T07:47:12.050Z,1026.12
2023-05-11T07:48:12.135Z,1026.07
2023-05-11T07:49:17.297Z,1026.11
2023-05-11T07:50:12.073Z,1026.11
2023-05-11T07:51:12.061Z,1026.09
2023-05-11T07:52:12.067Z,1026.10
2023-05-11T07:53:12.076Z,1026.12
2023-05-11T07:54:12.070Z,1026.14
2023-05-11T07:55:12.073Z,1026.17
2023-05-11T07:56:12.082Z,1026.12
2023-05-11T07:57:12.076Z,1026.10
2023-05-11T07:58:12.072Z,1026.10
2023-05-11T07:59:12.081Z,1026.12
2023-05-11T08:00:12.281Z,1026.14
2023-05-11T08:01:12.088Z,1026.11
2023-05-11T08:02:13.304Z,1026.13
2023-05-11T08:03:12.148Z,1026.12
2023-05-11T08:04:12.096Z,1026.11
2023-05-11T08:05:12.095Z,1026.09
2023-05-11T08:06:12.222Z,1026.09
2023-05-11T08:07:12.097Z,1026.12
2023-05-11T08:08:12.104Z,1026.09
2023-05-11T08:09:12.099Z,1026.07
2023-05-11T08:10:12.098Z,1026.08
2023-05-11T08:11:12.135Z,1026.06
2023-05-11T08:12:12.110Z,1026.05
2023-05-11T08:13:12.113Z,1026.09
2023-05-11T08:14:12.115Z,1026.11
2023-05-11T08:15:12.112Z,1026.11
2023-05-11T08:16:12.184Z,1026.13
2023-05-11T08:17:12.128Z,1026.11
2023-05-11T08:18:12.165Z,1026.14
2023-05-11T08:19:12.126Z,1026.12
2023-05-11T08:20:12.132Z,1026.17
2023-05-11T08:21:12.132Z,1026.17
2023-05-11T08:22:12.132Z,1026.17
2023-05-11T08:23:12.139Z,1026.16
2023-05-11T08:24:12.143Z,1026.14
2023-05-11T08:25:12.162Z,1026.14
2023-05-11T08:26:12.153Z,1026.13
2023-05-11T08:27:12.149Z,1026.17
2023-05-11T08:28:12.141Z,1026.15
2023-05-11T08:29:12.148Z,1026.14
2023-05-11T08:30:12.253Z,1026.13
2023-05-11T08:31:12.237Z,1026.15
2023-05-11T08:32:12.245Z,1026.15
2023-05-11T08:33:33.815Z,1026.15
2023-05-11T08:34:19.230Z,1026.13
2023-05-11T08:35:12.298Z,1026.20
2023-05-11T08:36:12.166Z,1026.18
2023-05-11T08:37:12.173Z,1026.17
2023-05-11T08:38:12.172Z,1026.19
2023-05-11T08:39:12.166Z,1026.21
2023-05-11T08:40:14.586Z,1026.20
2023-05-11T08:41:12.205Z,1026.17
2023-05-11T08:42:12.181Z,1026.16
2023-05-11T08:43:12.183Z,1026.16
2023-05-11T08:44:12.191Z,1026.16
2023-05-11T08:45:12.197Z,1026.14
2023-05-11T08:46:12.264Z,1026.16
2023-05-11T08:47:22.785Z,1026.17
2023-05-11T08:48:12.216Z,1026.18
2023-05-11T08:49:12.196Z,1026.22
2023-05-11T08:50:12.204Z,1026.19
2023-05-11T08:51:12.202Z,1026.18
2023-05-11T08:52:12.197Z,1026.15
2023-05-11T08:53:12.208Z,1026.17
2023-05-11T08:54:12.213Z,1026.16
2023-05-11T08:55:12.225Z,1026.11
2023-05-11T08:56:12.214Z,1026.13
2023-05-11T08:57:12.214Z,1026.13
2023-05-11T08:58:12.214Z,1026.11
2023-05-11T08:59:12.226Z,1026.13
2023-05-11T09:00:12.237Z,1026.10
2023-05-11T09:01:12.286Z,1026.10
2023-05-11T09:02:12.225Z,1026.07
2023-05-11T09:03:12.256Z,1026.12
2023-05-11T09:04:12.745Z,1026.11
2023-05-11T09:05:12.240Z,1026.11
2023-05-11T09:06:12.235Z,1026.10
2023-05-11T09:07:12.238Z,1026.10
2023-05-11T09:08:12.241Z,1026.11
2023-05-11T09:09:12.245Z,1026.09
2023-05-11T09:10:13.773Z,1026.11
2023-05-11T09:11:12.257Z,1026.07
2023-05-11T09:12:12.251Z,1026.06
2023-05-11T09:13:12.262Z,1026.09
2023-05-11T09:14:12.261Z,1026.06
2023-05-11T09:15:12.256Z,1026.03
2023-05-11T09:16:27.882Z,1026.03
2023-05-11T09:17:12.300Z,1026.06
2023-05-11T09:18:12.324Z,1026.02
2023-05-11T09:19:12.268Z,1026.00
2023-05-11T09:20:12.353Z,1026.00
2023-05-11T09:21:12.288Z,1025.98
2023-05-11T09:22:12.273Z,1025.98
2023-05-11T09:23:12.278Z,1025.99
2023-05-11T09:24:12.288Z,1026.01
2023-05-11T09:25:12.289Z,1025.98
2023-05-11T09:26:12.283Z,1025.96
2023-05-11T09:27:12.291Z,1025.94
2023-05-11T09:28:15.769Z,1025.92
2023-05-11T09:29:12.294Z,1025.93
2023-05-11T09:30:12.327Z,1025.94
2023-05-11T09:31:12.321Z,1025.94
2023-05-11T09:32:12.354Z,1025.96
2023-05-11T09:33:12.308Z,1025.89
2023-05-11T09:34:12.316Z,1025.90
2023-05-11T09:35:12.318Z,1025.89
2023-05-11T09:36:12.333Z,1025.89
2023-05-11T09:37:12.315Z,1025.90
2023-05-11T09:38:12.337Z,1025.91
2023-05-11T09:39:15.891Z,1025.87
2023-05-11T09:41:12.329Z,1025.86
2023-05-11T09:42:12.328Z,1025.86
2023-05-11T09:43:12.330Z,1025.89
2023-05-11T09:44:12.351Z,1025.87
2023-05-11T09:45:12.339Z,1025.88
2023-05-11T09:46:12.363Z,1025.85
2023-05-11T09:47:12.341Z,1025.88
2023-05-11T09:48:12.401Z,1025.86
2023-05-11T09:49:12.351Z,1025.86
2023-05-11T09:50:12.350Z,1025.83
2023-05-11T09:51:12.358Z,1025.84
2023-05-11T09:52:12.616Z,1025.85
2023-05-11T09:53:12.360Z,1025.83
2023-05-11T09:54:12.387Z,1025.82
2023-05-11T09:55:12.364Z,1025.82
2023-05-11T09:56:12.369Z,1025.83
2023-05-11T09:57:12.371Z,1025.81
2023-05-11T09:58:12.375Z,1025.82
2023-05-11T09:59:12.380Z,1025.81
2023-05-11T10:00:12.380Z,1025.81
2023-05-11T10:01:12.433Z,1025.81
2023-05-11T10:02:12.387Z,1025.84
2023-05-11T10:03:12.483Z,1025.83
2023-05-11T10:04:22.846Z,1025.78
2023-05-11T10:05:12.396Z,1025.85
2023-05-11T10:06:12.396Z,1025.81
2023-05-11T10:07:12.416Z,1025.83
2023-05-11T10:08:12.439Z,1025.79
2023-05-11T10:09:12.418Z,1025.74
2023-05-11T10:10:12.407Z,1025.78
2023-05-11T10:11:12.411Z,1025.81
2023-05-11T10:12:12.412Z,1025.83
2023-05-11T10:13:12.425Z,1025.79
2023-05-11T10:14:12.425Z,1025.80
2023-05-11T10:15:12.413Z,1025.78
2023-05-11T10:16:12.456Z,1025.76
2023-05-11T10:17:12.430Z,1025.76
2023-05-11T10:18:12.513Z,1025.80
2023-05-11T10:19:12.520Z,1025.75
2023-05-11T10:20:12.444Z,1025.73
2023-05-11T10:21:12.443Z,1025.73
2023-05-11T10:22:12.488Z,1025.75
2023-05-11T10:23:12.453Z,1025.69
2023-05-11T10:24:12.474Z,1025.70
2023-05-11T10:25:12.487Z,1025.68
2023-05-11T10:26:12.463Z,1025.68
2023-05-11T10:27:12.461Z,1025.68
2023-05-11T10:28:12.457Z,1025.68
2023-05-11T10:29:12.461Z,1025.64
2023-05-11T10:30:12.470Z,1025.66
2023-05-11T10:31:12.472Z,1025.66
2023-05-11T10:32:12.594Z,1025.68
2023-05-11T10:33:12.528Z,1025.61
2023-05-11T10:34:12.491Z,1025.62
2023-05-11T10:35:12.482Z,1025.64
2023-05-11T10:36:12.564Z,1025.63
2023-05-11T10:37:12.489Z,1025.63
2023-05-11T10:38:12.489Z,1025.60
2023-05-11T10:39:12.486Z,1025.60
2023-05-11T10:40:12.514Z,1025.56
2023-05-11T10:41:12.496Z,1025.55
2023-05-11T10:42:12.553Z,1025.54
2023-05-11T10:43:12.508Z,1025.56
2023-05-11T10:44:12.501Z,1025.55
2023-05-11T10:45:12.511Z,1025.54
2023-05-11T10:46:12.565Z,1025.51
2023-05-11T10:47:12.518Z,1025.50
2023-05-11T10:48:12.517Z,1025.50
2023-05-11T10:49:12.518Z,1025.52
2023-05-11T10:50:12.537Z,1025.48
2023-05-11T10:51:12.522Z,1025.47
2023-05-11T10:52:12.588Z,1025.50
2023-05-11T10:53:12.535Z,1025.47
2023-05-11T10:54:12.531Z,1025.46
2023-05-11T10:55:12.534Z,1025.46
2023-05-11T10:56:12.584Z,1025.46
2023-05-11T10:57:12.563Z,1025.45
2023-05-11T10:58:12.550Z,1025.48
2023-05-11T10:59:12.550Z,1025.44
2023-05-11T11:00:12.656Z,1025.48
2023-05-11T11:01:12.615Z,1025.46
2023-05-11T11:02:12.559Z,1025.48
2023-05-11T11:03:12.576Z,1025.49
2023-05-11T11:04:12.568Z,1025.51
2023-05-11T11:05:12.602Z,1025.49
2023-05-11T11:06:12.710Z,1025.46
2023-05-11T11:07:12.576Z,1025.47
2023-05-11T11:08:12.578Z,1025.46
2023-05-11T11:09:12.611Z,1025.47
2023-05-11T11:10:12.587Z,1025.48
2023-05-11T11:11:12.591Z,1025.46
2023-05-11T11:12:12.627Z,1025.43
2023-05-11T11:13:12.606Z,1025.44
2023-05-11T11:14:12.602Z,1025.44
2023-05-11T11:15:12.644Z,1025.41
2023-05-11T11:16:14.744Z,1025.42
2023-05-11T11:17:12.661Z,1025.42
2023-05-11T11:18:12.631Z,1025.41
2023-05-11T11:19:12.656Z,1025.39
2023-05-11T11:20:12.651Z,1025.35
2023-05-11T11:21:12.627Z,1025.39
2023-05-11T11:22:12.679Z,1025.38
2023-05-11T11:23:12.634Z,1025.36
2023-05-11T11:24:12.637Z,1025.33
2023-05-11T11:25:12.630Z,1025.36
2023-05-11T11:26:12.645Z,1025.34
2023-05-11T11:27:12.642Z,1025.28
2023-05-11T11:28:12.674Z,1025.28
2023-05-11T11:29:12.656Z,1025.30
2023-05-11T11:30:12.673Z,1025.26
2023-05-11T11:31:12.714Z,1025.29
2023-05-11T11:32:12.658Z,1025.29
2023-05-11T11:33:12.737Z,1025.32
2023-05-11T11:34:12.719Z,1025.28
2023-05-11T11:35:12.666Z,1025.29
2023-05-11T11:36:12.676Z,1025.28
2023-05-11T11:37:12.736Z,1025.27
2023-05-11T11:38:12.677Z,1025.22
2023-05-11T11:39:12.685Z,1025.23
2023-05-11T11:40:15.458Z,1025.24
2023-05-11T11:41:12.690Z,1025.22
2023-05-11T11:42:12.756Z,1025.21
2023-05-11T11:43:12.695Z,1025.23
2023-05-11T11:44:12.745Z,1025.22
2023-05-11T11:45:12.698Z,1025.22
2023-05-11T11:46:12.722Z,1025.23
2023-05-11T11:47:12.782Z,1025.18
2023-05-11T11:48:12.841Z,1025.20
2023-05-11T11:49:12.718Z,1025.20
2023-05-11T11:50:12.719Z,1025.18
2023-05-11T11:51:12.720Z,1025.19
2023-05-11T11:52:12.738Z,1025.22
2023-05-11T11:53:12.739Z,1025.19
2023-05-11T11:54:12.792Z,1025.18
2023-05-11T11:55:12.740Z,1025.18
2023-05-11T11:56:12.736Z,1025.15
2023-05-11T11:57:12.794Z,1025.15
2023-05-11T11:58:12.740Z,1025.16
2023-05-11T11:59:12.743Z,1025.17
2023-05-11T12:00:12.782Z,1025.17
2023-05-11T12:01:12.753Z,1025.18
2023-05-11T12:02:12.760Z,1025.15
2023-05-11T12:03:12.816Z,1025.19
2023-05-11T12:04:12.958Z,1025.17
2023-05-11T12:05:12.815Z,1025.15
2023-05-11T12:06:12.767Z,1025.18